createdAt,value
2022-10-31T00:01:16.496Z,94.70
2022-10-31T00:03:43.395Z,94.70
2022-10-31T00:06:10.270Z,94.70
2022-10-31T00:08:37.174Z,94.80
2022-10-31T00:11:04.168Z,94.80
2022-10-31T00:13:31.039Z,94.90
2022-10-31T00:15:57.894Z,94.80
2022-10-31T00:18:24.770Z,94.80
2022-10-31T00:21:01.140Z,94.90
2022-10-31T00:23:28.078Z,94.90
2022-10-31T00:25:55.183Z,94.80
2022-10-31T00:28:22.096Z,94.80
2022-10-31T00:30:49.089Z,94.80
2022-10-31T00:33:16.078Z,94.90
2022-10-31T00:35:42.956Z,94.80
2022-10-31T00:38:09.846Z,94.80
2022-10-31T00:40:36.715Z,94.80
2022-10-31T00:43:04.124Z,94.80
2022-10-31T00:45:31.847Z,94.80
2022-10-31T00:47:59.148Z,94.70
2022-10-31T00:50:26.314Z,94.70
2022-10-31T00:52:53.203Z,94.70
2022-10-31T00:55:20.098Z,94.70
2022-10-31T00:57:48.664Z,94.80
2022-10-31T01:00:16.927Z,94.80
2022-10-31T01:02:44.446Z,94.80
2022-10-31T01:05:11.429Z,94.80
2022-10-31T01:07:42.518Z,94.80
2022-10-31T01:10:11.281Z,94.80
2022-10-31T01:12:49.331Z,94.80
2022-10-31T01:15:22.084Z,94.80
2022-10-31T01:17:49.857Z,94.70
2022-10-31T01:20:18.011Z,94.70
2022-10-31T01:22:44.936Z,94.70
2022-10-31T01:25:11.946Z,94.70
2022-10-31T01:27:38.932Z,94.70
2022-10-31T01:30:08.395Z,94.60
2022-10-31T01:32:35.499Z,94.60
2022-10-31T01:35:02.358Z,94.60
2022-10-31T01:37:29.301Z,94.60
2022-10-31T01:39:56.213Z,95.00
2022-10-31T01:42:24.451Z,94.70
2022-10-31T01:44:56.866Z,94.70
2022-10-31T01:47:39.621Z,94.60
2022-10-31T01:50:15.663Z,94.60
2022-10-31T01:52:47.662Z,94.70
2022-10-31T01:55:25.154Z,94.70
2022-10-31T01:57:59.685Z,94.70
2022-10-31T02:00:26.711Z,94.60
2022-10-31T02:02:53.696Z,94.60
2022-10-31T02:05:26.181Z,94.60
2022-10-31T02:08:04.861Z,94.60
2022-10-31T02:10:34.548Z,94.70
2022-10-31T02:13:05.726Z,94.80
2022-10-31T02:15:38.683Z,94.80
2022-10-31T02:18:06.498Z,94.80
2022-10-31T02:20:50.600Z,94.90
2022-10-31T02:24:19.342Z,94.80
2022-10-31T02:27:05.148Z,94.90
2022-10-31T02:30:07.346Z,94.80
2022-10-31T02:32:59.391Z,94.90
2022-10-31T02:35:55.556Z,94.90
2022-10-31T02:38:47.287Z,94.90
2022-10-31T02:41:33.133Z,94.80
2022-10-31T02:44:08.432Z,94.80
2022-10-31T02:46:45.963Z,94.80
2022-10-31T02:49:35.234Z,94.80
2022-10-31T02:52:02.135Z,94.80
2022-10-31T02:54:30.037Z,94.70
2022-10-31T02:57:07.782Z,94.80
2022-10-31T02:59:37.482Z,94.80
2022-10-31T03:02:48.843Z,94.80
2022-10-31T03:05:19.069Z,94.70
2022-10-31T03:08:11.795Z,94.60
2022-10-31T03:10:56.908Z,94.70
2022-10-31T03:13:41.099Z,94.70
2022-10-31T03:16:13.868Z,94.70
2022-10-31T03:18:46.317Z,94.70
2022-10-31T03:21:26.190Z,94.70
2022-10-31T03:23:54.934Z,94.70
2022-10-31T03:26:23.903Z,94.70
2022-10-31T03:28:57.102Z,94.70
2022-10-31T03:31:33.010Z,94.60
2022-10-31T03:34:03.797Z,94.60
2022-10-31T03:36:36.289Z,94.70
2022-10-31T03:39:07.120Z,94.70
2022-10-31T03:41:42.736Z,94.70
2022-10-31T03:44:14.687Z,94.70
2022-10-31T03:46:42.937Z,94.70
2022-10-31T03:49:11.650Z,94.80
2022-10-31T03:52:01.206Z,94.80
2022-10-31T03:54:42.368Z,94.80
2022-10-31T03:57:39.027Z,94.80
2022-10-31T04:00:10.769Z,94.80
2022-10-31T04:03:17.606Z,94.80
2022-10-31T04:05:48.437Z,94.80
2022-10-31T04:08:21.471Z,94.80
2022-10-31T04:10:50.930Z,94.90
2022-10-31T04:13:26.511Z,94.80
2022-10-31T04:16:02.403Z,94.90
2022-10-31T04:18:29.799Z,95.00
2022-10-31T04:21:07.070Z,95.10
2022-10-31T04:23:35.939Z,95.10
2022-10-31T04:26:13.340Z,95.00
2022-10-31T04:28:40.270Z,95.10
2022-10-31T04:31:07.624Z,95.00
2022-10-31T04:33:37.735Z,95.00
2022-10-31T04:36:05.618Z,95.20
2022-10-31T04:38:32.559Z,95.30
2022-10-31T04:40:59.613Z,95.30
2022-10-31T04:43:43.526Z,95.40
2022-10-31T04:46:10.466Z,95.60
2022-10-31T04:48:37.639Z,95.80
2022-10-31T04:51:06.733Z,96.00
2022-10-31T04:53:33.966Z,96.20
2022-10-31T04:56:21.165Z,96.10
2022-10-31T04:58:52.797Z,96.30
2022-10-31T05:01:20.455Z,96.40
2022-10-31T05:03:49.585Z,96.60
2022-10-31T05:06:17.562Z,96.80
2022-10-31T05:08:44.459Z,96.90
2022-10-31T05:11:12.745Z,97.10
2022-10-31T05:13:39.897Z,97.20
2022-10-31T05:16:29.877Z,97.30
2022-10-31T05:19:25.749Z,97.30
2022-10-31T05:22:21.340Z,97.20
2022-10-31T05:24:48.223Z,97.20
2022-10-31T05:27:15.130Z,97.20
2022-10-31T05:29:42.652Z,97.10
2022-10-31T05:32:09.545Z,97.20
2022-10-31T05:34:54.973Z,97.20
2022-10-31T05:37:43.110Z,97.20
2022-10-31T05:40:13.185Z,97.20
2022-10-31T05:42:41.837Z,97.20
2022-10-31T05:45:11.542Z,97.20
2022-10-31T05:47:55.214Z,97.30
2022-10-31T05:50:42.108Z,97.40
2022-10-31T05:53:10.994Z,97.30
2022-10-31T05:55:38.990Z,97.40
2022-10-31T05:58:14.551Z,97.50
2022-10-31T06:00:49.331Z,97.60
2022-10-31T06:03:16.597Z,97.80
2022-10-31T06:06:03.793Z,97.80
2022-10-31T06:08:35.505Z,97.90
2022-10-31T06:11:05.975Z,97.90
2022-10-31T06:13:51.431Z,97.90
2022-10-31T06:16:23.830Z,98.00
2022-10-31T06:18:51.606Z,98.00
2022-10-31T06:21:19.275Z,97.90
2022-10-31T06:23:48.711Z,97.90
2022-10-31T06:26:26.815Z,97.90
2022-10-31T06:28:53.937Z,97.90
2022-10-31T06:31:37.022Z,97.90
2022-10-31T06:34:03.989Z,98.00
2022-10-31T06:36:31.042Z,98.00
2022-10-31T06:38:58.787Z,98.00
2022-10-31T06:41:26.626Z,97.90
2022-10-31T06:43:54.627Z,97.90
2022-10-31T06:46:37.019Z,97.80
2022-10-31T06:49:21.291Z,97.80
2022-10-31T06:51:54.445Z,97.90
2022-10-31T06:54:22.369Z,97.90
2022-10-31T06:56:50.314Z,97.90
2022-10-31T06:59:17.375Z,98.00
2022-10-31T07:02:08.497Z,98.00
2022-10-31T07:04:35.468Z,98.00
2022-10-31T07:07:02.701Z,98.00
2022-10-31T07:09:30.370Z,98.00
2022-10-31T07:11:59.715Z,98.00
2022-10-31T07:14:26.608Z,98.00
2022-10-31T07:16:54.105Z,98.00
2022-10-31T07:19:26.106Z,98.10
2022-10-31T07:21:53.008Z,98.20
2022-10-31T07:24:19.954Z,98.30
2022-10-31T07:27:15.574Z,98.30
2022-10-31T07:29:43.030Z,98.40
2022-10-31T07:32:10.207Z,98.50
2022-10-31T07:34:46.635Z,98.50
2022-10-31T07:37:17.355Z,98.70
2022-10-31T07:39:44.251Z,98.70
2022-10-31T07:42:11.353Z,98.80
2022-10-31T07:44:43.890Z,98.80
2022-10-31T07:47:13.395Z,98.90
2022-10-31T07:50:03.505Z,98.90
2022-10-31T07:53:11.797Z,98.90
2022-10-31T07:55:49.271Z,99.00
2022-10-31T07:58:17.887Z,98.90
2022-10-31T08:00:48.151Z,99.00
2022-10-31T08:03:22.458Z,99.00
2022-10-31T08:06:15.421Z,98.90
2022-10-31T08:09:07.868Z,98.90
2022-10-31T08:11:34.773Z,98.80
2022-10-31T08:14:02.775Z,98.80
2022-10-31T08:16:29.729Z,98.70
2022-10-31T08:19:01.174Z,98.70
2022-10-31T08:21:29.934Z,98.60
2022-10-31T08:23:57.970Z,98.60
2022-10-31T08:26:25.679Z,98.50
2022-10-31T08:28:55.757Z,98.40
2022-10-31T08:31:31.971Z,98.40
2022-10-31T08:34:19.050Z,98.30
2022-10-31T08:37:08.542Z,98.30
2022-10-31T08:39:41.020Z,98.30
2022-10-31T08:42:07.957Z,98.30
2022-10-31T08:44:34.864Z,98.20
2022-10-31T08:47:01.973Z,98.30
2022-10-31T08:49:32.651Z,98.20
2022-10-31T08:51:59.639Z,98.30
2022-10-31T08:54:31.830Z,98.20
2022-10-31T08:57:19.016Z,98.50
2022-10-31T08:59:47.819Z,98.20
2022-10-31T09:02:24.223Z,98.20
2022-10-31T09:04:54.365Z,98.20
2022-10-31T09:07:21.809Z,98.20
2022-10-31T09:09:49.446Z,98.20
2022-10-31T09:12:17.845Z,98.20
2022-10-31T09:15:03.402Z,98.00
2022-10-31T09:17:38.839Z,97.80
2022-10-31T09:20:24.065Z,97.70
2022-10-31T09:23:01.400Z,97.60
2022-10-31T09:25:30.523Z,97.60
2022-10-31T09:28:23.638Z,97.60
2022-10-31T09:30:53.943Z,97.70
2022-10-31T09:33:40.788Z,97.60
2022-10-31T09:36:33.383Z,97.50
2022-10-31T09:39:00.266Z,97.50
2022-10-31T09:41:57.302Z,97.50
2022-10-31T09:45:18.364Z,97.50
2022-10-31T09:48:00.794Z,97.40
2022-10-31T09:50:48.537Z,97.40
2022-10-31T09:54:02.000Z,97.40
2022-10-31T09:56:32.217Z,97.40
2022-10-31T09:59:02.771Z,97.30
2022-10-31T10:01:45.684Z,97.20
2022-10-31T10:04:30.500Z,97.10
2022-10-31T10:07:46.067Z,97.10
2022-10-31T10:10:50.355Z,96.90
2022-10-31T10:13:47.594Z,96.80
2022-10-31T10:16:49.195Z,96.80
2022-10-31T10:19:57.875Z,96.60
2022-10-31T10:22:48.462Z,96.50
2022-10-31T10:25:24.610Z,96.40
2022-10-31T10:28:06.339Z,96.50
2022-10-31T10:30:55.694Z,96.60
2022-10-31T10:33:31.564Z,96.50
2022-10-31T10:36:06.602Z,96.40
2022-10-31T10:38:57.759Z,96.40
2022-10-31T10:41:33.246Z,96.40
2022-10-31T10:44:01.131Z,96.40
2022-10-31T10:47:00.477Z,96.50
2022-10-31T10:49:46.750Z,96.40
2022-10-31T10:52:50.900Z,96.40
2022-10-31T10:55:40.915Z,96.30
2022-10-31T10:58:10.090Z,96.50
2022-10-31T11:00:48.459Z,96.30
2022-10-31T11:03:17.775Z,96.30
2022-10-31T11:05:54.237Z,96.30
2022-10-31T11:08:33.353Z,96.30
2022-10-31T11:11:03.612Z,96.30
2022-10-31T11:13:31.826Z,96.30
2022-10-31T11:16:05.765Z,96.30
2022-10-31T11:18:40.716Z,96.40
2022-10-31T11:21:26.895Z,96.40
2022-10-31T11:24:17.715Z,96.50
2022-10-31T11:26:47.340Z,96.50
2022-10-31T11:29:28.093Z,96.50
2022-10-31T11:31:57.947Z,96.60
2022-10-31T11:34:34.350Z,96.70
2022-10-31T11:37:19.200Z,96.70
2022-10-31T11:39:54.444Z,96.70
2022-10-31T11:42:30.086Z,96.70
2022-10-31T11:44:57.809Z,96.80
2022-10-31T11:47:31.077Z,96.80
2022-10-31T11:50:02.545Z,96.80
2022-10-31T11:52:32.619Z,96.80
2022-10-31T11:55:18.261Z,96.70
2022-10-31T11:57:50.149Z,96.70
2022-10-31T12:03:18.251Z,97.10
2022-10-31T12:05:48.695Z,96.70
2022-10-31T12:08:15.685Z,96.60
2022-10-31T12:11:14.060Z,96.60
2022-10-31T12:14:03.664Z,96.60
2022-10-31T12:17:04.922Z,96.60
2022-10-31T12:20:08.610Z,96.50
2022-10-31T12:23:00.308Z,96.60
2022-10-31T12:25:41.406Z,96.50
2022-10-31T12:28:55.255Z,96.50
2022-10-31T12:32:18.766Z,96.60
2022-10-31T12:34:59.451Z,96.60
2022-10-31T12:38:26.238Z,96.60
2022-10-31T12:41:23.730Z,96.60
2022-10-31T12:44:06.718Z,96.70
2022-10-31T12:46:57.420Z,96.80
2022-10-31T12:49:52.797Z,96.80
2022-10-31T12:53:01.200Z,96.80
2022-10-31T12:56:00.436Z,96.80
2022-10-31T12:58:44.050Z,96.80
2022-10-31T13:01:25.121Z,96.70
2022-10-31T13:04:22.567Z,96.70
2022-10-31T13:07:00.650Z,96.60
2022-10-31T13:09:36.732Z,96.60
2022-10-31T13:12:15.692Z,96.60
2022-10-31T13:14:57.378Z,96.70
2022-10-31T13:17:36.696Z,96.60
2022-10-31T13:20:35.546Z,96.60
2022-10-31T13:23:49.194Z,96.60
2022-10-31T13:26:19.813Z,96.50
2022-10-31T13:28:55.489Z,96.50
2022-10-31T13:31:22.534Z,96.60
2022-10-31T13:33:54.599Z,96.60
2022-10-31T13:36:40.539Z,96.70
2022-10-31T13:39:50.614Z,96.70
2022-10-31T13:42:25.061Z,96.70
2022-10-31T13:44:51.945Z,96.60
2022-10-31T13:47:30.352Z,96.60
2022-10-31T13:50:23.431Z,96.60
2022-10-31T13:52:50.701Z,96.50
2022-10-31T13:55:43.091Z,96.40
2022-10-31T13:58:31.139Z,96.30
2022-10-31T14:01:18.261Z,96.30
2022-10-31T14:04:05.008Z,96.30
2022-10-31T14:06:54.699Z,96.40
2022-10-31T14:09:48.140Z,96.30
2022-10-31T14:12:38.197Z,96.30
2022-10-31T14:15:22.357Z,96.30
2022-10-31T14:18:02.860Z,96.30
2022-10-31T14:20:42.626Z,96.30
2022-10-31T14:23:31.260Z,96.30
2022-10-31T14:26:19.735Z,96.30
2022-10-31T14:28:48.458Z,96.30
2022-10-31T14:31:59.626Z,96.30
2022-10-31T14:34:39.733Z,96.30
2022-10-31T14:38:06.532Z,96.20
2022-10-31T14:41:16.406Z,96.30
2022-10-31T14:44:19.123Z,96.30
2022-10-31T14:47:02.196Z,96.20
2022-10-31T14:50:10.354Z,96.20
2022-10-31T14:52:39.066Z,96.20
2022-10-31T14:55:12.659Z,96.20
2022-10-31T14:57:53.812Z,96.20
2022-10-31T15:00:23.076Z,96.20
2022-10-31T15:03:23.399Z,96.20
2022-10-31T15:05:54.433Z,96.20
2022-10-31T15:08:36.645Z,96.10
2022-10-31T15:11:18.353Z,96.10
2022-10-31T15:13:54.924Z,96.10
2022-10-31T15:16:43.179Z,96.10
2022-10-31T15:19:18.166Z,96.10
2022-10-31T15:21:46.983Z,96.10
2022-10-31T15:24:19.322Z,96.10
2022-10-31T15:26:52.076Z,96.20
2022-10-31T15:29:24.814Z,96.20
2022-10-31T15:31:56.333Z,96.20
2022-10-31T15:34:43.720Z,96.20
2022-10-31T15:37:14.639Z,96.20
2022-10-31T15:39:42.296Z,96.20
2022-10-31T15:42:35.426Z,96.20
2022-10-31T15:45:03.513Z,96.30
2022-10-31T15:47:33.185Z,96.20
2022-10-31T15:50:02.121Z,96.20
2022-10-31T15:52:48.151Z,96.20
2022-10-31T15:55:16.817Z,96.30
2022-10-31T15:57:51.901Z,96.20
2022-10-31T16:00:30.419Z,96.20
2022-10-31T16:03:15.776Z,96.20
2022-10-31T16:05:50.850Z,96.20
2022-10-31T16:08:30.749Z,96.20
2022-10-31T16:11:00.645Z,96.20
2022-10-31T16:13:31.936Z,96.20
2022-10-31T16:16:34.825Z,96.20
2022-10-31T16:19:04.817Z,96.20
2022-10-31T16:21:36.790Z,96.10
2022-10-31T16:24:27.873Z,96.20
2022-10-31T16:27:18.306Z,96.50
2022-10-31T16:29:48.135Z,96.20
2022-10-31T16:32:56.535Z,96.20
2022-10-31T16:35:29.271Z,96.20
2022-10-31T16:37:56.222Z,96.20
2022-10-31T16:40:23.139Z,96.20
2022-10-31T16:42:50.176Z,96.20
2022-10-31T16:45:26.867Z,96.20
2022-10-31T16:47:54.015Z,96.30
2022-10-31T16:50:27.108Z,96.20
2022-10-31T16:53:12.824Z,96.20
2022-10-31T16:55:46.724Z,96.40
2022-10-31T16:58:39.433Z,96.30
2022-10-31T17:01:07.941Z,96.30
2022-10-31T17:03:36.420Z,96.30
2022-10-31T17:06:03.364Z,96.40
2022-10-31T17:08:30.880Z,96.40
2022-10-31T17:10:59.043Z,96.40
2022-10-31T17:13:30.941Z,96.50
2022-10-31T17:16:00.451Z,96.50
2022-10-31T17:18:28.167Z,96.60
2022-10-31T17:21:06.054Z,96.60
2022-10-31T17:23:33.671Z,96.60
2022-10-31T17:26:01.040Z,96.50
2022-10-31T17:28:27.919Z,96.60
2022-10-31T17:30:58.352Z,96.60
2022-10-31T17:33:25.343Z,96.70
2022-10-31T17:35:52.209Z,96.70
2022-10-31T17:38:19.154Z,96.70
2022-10-31T17:40:46.049Z,96.70
2022-10-31T17:43:13.161Z,96.80
2022-10-31T17:45:41.894Z,96.70
2022-10-31T17:48:12.521Z,96.80
2022-10-31T17:50:39.463Z,96.80
2022-10-31T17:53:06.382Z,96.70
2022-10-31T17:55:36.219Z,96.80
2022-10-31T17:58:04.660Z,96.80
2022-10-31T18:00:31.695Z,96.90
2022-10-31T18:02:58.904Z,96.80
2022-10-31T18:05:26.034Z,96.80
2022-10-31T18:07:53.112Z,96.90
2022-10-31T18:10:20.004Z,96.90
2022-10-31T18:12:48.683Z,96.90
2022-10-31T18:15:17.773Z,96.90
2022-10-31T18:17:45.677Z,97.00
2022-10-31T18:20:12.934Z,97.00
2022-10-31T18:22:39.819Z,97.00
2022-10-31T18:25:07.083Z,97.00
2022-10-31T18:27:33.947Z,97.00
2022-10-31T18:30:00.821Z,97.00
2022-10-31T18:32:27.708Z,97.00
2022-10-31T18:34:54.582Z,97.00
2022-10-31T18:37:21.443Z,97.00
2022-10-31T18:39:48.322Z,97.00
2022-10-31T18:42:15.207Z,97.10
2022-10-31T18:44:42.103Z,97.10
2022-10-31T18:47:09.033Z,97.00
2022-10-31T18:49:36.613Z,96.90
2022-10-31T18:52:04.675Z,97.00
2022-10-31T18:54:31.590Z,96.90
2022-10-31T18:56:58.464Z,97.00
2022-10-31T18:59:25.337Z,97.00
2022-10-31T19:01:52.300Z,97.00
2022-10-31T19:04:19.346Z,96.90
2022-10-31T19:06:46.318Z,96.90
2022-10-31T19:09:13.228Z,96.90
2022-10-31T19:11:40.161Z,97.10
2022-10-31T19:14:11.008Z,97.10
2022-10-31T19:16:37.896Z,97.10
2022-10-31T19:19:05.262Z,97.10
2022-10-31T19:21:32.459Z,97.30
2022-10-31T19:24:00.825Z,97.30
2022-10-31T19:26:28.848Z,97.30
2022-10-31T19:28:56.642Z,97.40
2022-10-31T19:31:24.069Z,97.40
2022-10-31T19:33:50.982Z,97.40
2022-10-31T19:36:20.136Z,97.30
2022-10-31T19:38:49.646Z,97.40
2022-10-31T19:41:26.096Z,97.40
2022-10-31T19:43:53.872Z,97.50
2022-10-31T19:46:47.841Z,97.50
2022-10-31T19:49:13.669Z,97.50
2022-10-31T19:51:40.547Z,97.50
2022-10-31T19:54:07.601Z,97.50
2022-10-31T19:56:34.688Z,97.50
2022-10-31T19:59:03.152Z,97.50
2022-10-31T20:01:30.143Z,97.60
2022-10-31T20:03:57.081Z,97.60
2022-10-31T20:06:33.110Z,97.70
2022-10-31T20:09:03.855Z,97.70
2022-10-31T20:11:30.735Z,97.70
2022-10-31T20:13:59.257Z,97.70
2022-10-31T20:16:27.222Z,97.70
2022-10-31T20:18:55.107Z,97.70
2022-10-31T20:21:26.332Z,97.70
2022-10-31T20:24:00.740Z,97.70
2022-10-31T20:26:28.853Z,97.70
2022-10-31T20:28:57.614Z,97.70
2022-10-31T20:31:29.085Z,97.70
2022-10-31T20:33:56.440Z,97.70
2022-10-31T20:36:23.851Z,97.70
2022-10-31T20:38:52.624Z,97.70
2022-10-31T20:41:19.881Z,97.70
2022-10-31T20:43:47.241Z,97.70
2022-10-31T20:46:20.736Z,97.70
2022-10-31T20:48:48.398Z,97.60
2022-10-31T20:51:19.320Z,97.70
2022-10-31T20:53:46.430Z,97.70
2022-10-31T20:56:20.581Z,97.70
2022-10-31T20:58:48.738Z,98.10
2022-10-31T21:01:28.779Z,97.80
2022-10-31T21:03:55.975Z,97.80
2022-10-31T21:06:23.352Z,97.70
2022-10-31T21:08:51.058Z,97.80
2022-10-31T21:11:21.304Z,97.80
2022-10-31T21:13:49.156Z,97.80
2022-10-31T21:16:22.446Z,97.80
2022-10-31T21:18:50.782Z,97.80
2022-10-31T21:21:32.441Z,97.80
2022-10-31T21:24:10.312Z,97.80
2022-10-31T21:26:41.035Z,97.80
2022-10-31T21:29:09.781Z,97.90
2022-10-31T21:31:38.388Z,97.90
2022-10-31T21:34:05.797Z,97.80
2022-10-31T21:36:34.527Z,97.80
2022-10-31T21:39:01.510Z,97.80
2022-10-31T21:41:28.526Z,97.80
2022-10-31T21:43:55.502Z,97.80
2022-10-31T21:46:26.604Z,97.80
2022-10-31T21:48:55.279Z,97.80
2022-10-31T21:51:29.149Z,97.80
2022-10-31T21:54:15.389Z,98.10
2022-10-31T21:56:42.657Z,97.70
2022-10-31T21:59:09.735Z,97.70
2022-10-31T22:01:37.183Z,97.60
2022-10-31T22:04:04.807Z,97.60
2022-10-31T22:06:32.167Z,97.70
2022-10-31T22:09:00.962Z,97.70
2022-10-31T22:11:28.503Z,97.70
2022-10-31T22:13:56.322Z,97.70
2022-10-31T22:16:24.816Z,97.80
2022-10-31T22:18:54.685Z,97.80
2022-10-31T22:21:24.421Z,97.80
2022-10-31T22:24:02.040Z,97.90
2022-10-31T22:26:32.285Z,97.90
2022-10-31T22:29:01.072Z,97.90
2022-10-31T22:31:30.392Z,97.90
2022-10-31T22:33:57.550Z,97.90
2022-10-31T22:36:28.493Z,97.90
2022-10-31T22:38:55.741Z,97.90
2022-10-31T22:41:26.359Z,98.00
2022-10-31T22:43:54.800Z,97.90
2022-10-31T22:46:25.772Z,98.00
2022-10-31T22:48:56.411Z,98.00
2022-10-31T22:51:29.894Z,98.00
2022-10-31T22:53:57.230Z,98.10
2022-10-31T22:56:30.366Z,98.10
2022-10-31T22:58:58.751Z,98.10
2022-10-31T23:01:33.808Z,98.20
2022-10-31T23:04:01.609Z,98.10
2022-10-31T23:06:30.561Z,98.00
2022-10-31T23:08:59.547Z,98.10
2022-10-31T23:11:34.427Z,98.10
2022-10-31T23:14:13.763Z,98.00
2022-10-31T23:16:52.504Z,98.10
2022-10-31T23:19:29.090Z,98.10
2022-10-31T23:22:02.112Z,98.10
2022-10-31T23:24:44.569Z,98.10
2022-10-31T23:27:17.619Z,98.10
2022-10-31T23:29:52.682Z,98.00
2022-10-31T23:32:21.703Z,98.10
2022-10-31T23:34:52.111Z,98.10
2022-10-31T23:37:21.577Z,98.10
2022-10-31T23:39:48.705Z,98.40
2022-10-31T23:42:15.942Z,98.10
2022-10-31T23:44:42.910Z,98.10
2022-10-31T23:47:10.035Z,98.20
2022-10-31T23:49:37.105Z,98.20
2022-10-31T23:52:05.040Z,98.20
2022-10-31T23:54:32.370Z,98.20
2022-10-31T23:56:59.484Z,98.30
2022-10-31T23:59:26.865Z,98.30
